createdAt,value
2018-08-20T00:00:02.287Z,1009.59
2018-08-20T00:00:42.742Z,1009.62
2018-08-20T00:01:23.169Z,1009.59
2018-08-20T00:02:03.499Z,1009.62
2018-08-20T00:02:43.985Z,1009.56
2018-08-20T00:03:24.357Z,1009.62
2018-08-20T00:04:04.811Z,1009.64
2018-08-20T00:04:45.113Z,1009.62
2018-08-20T00:05:25.593Z,1009.63
2018-08-20T00:06:06.183Z,1009.64
2018-08-20T00:06:46.583Z,1009.65
2018-08-20T00:07:26.999Z,1009.68
2018-08-20T00:08:07.369Z,1009.68
2018-08-20T00:08:47.892Z,1009.68
2018-08-20T00:09:28.222Z,1009.67
2018-08-20T00:10:08.608Z,1009.64
2018-08-20T00:10:48.986Z,1009.69
2018-08-20T00:11:29.426Z,1009.67
2018-08-20T00:12:09.817Z,1009.66
2018-08-20T00:12:50.228Z,1009.65
2018-08-20T00:13:30.655Z,1009.66
2018-08-20T00:14:10.980Z,1009.69
2018-08-20T00:14:51.387Z,1009.68
2018-08-20T00:15:31.883Z,1009.7
2018-08-20T00:16:12.331Z,1009.68
2018-08-20T00:16:52.729Z,1009.7
2018-08-20T00:17:33.240Z,1009.65
2018-08-20T00:18:13.700Z,1009.69
2018-08-20T00:18:54.150Z,1009.68
2018-08-20T00:19:34.520Z,1009.68
2018-08-20T00:20:14.886Z,1009.67
2018-08-20T00:20:55.295Z,1009.69
2018-08-20T00:21:35.815Z,1009.72
2018-08-20T00:22:16.123Z,1009.71
2018-08-20T00:22:56.567Z,1009.69
2018-08-20T00:23:36.921Z,1009.68
2018-08-20T00:24:17.420Z,1009.7
2018-08-20T00:24:57.877Z,1009.71
2018-08-20T00:25:38.169Z,1009.72
2018-08-20T00:26:18.504Z,1009.69
2018-08-20T00:26:59.097Z,1009.7
2018-08-20T00:27:39.390Z,1009.7
2018-08-20T00:28:19.826Z,1009.72
2018-08-20T00:29:00.250Z,1009.71
2018-08-20T00:29:40.711Z,1009.73
2018-08-20T00:30:20.971Z,1009.69
2018-08-20T00:31:01.414Z,1009.69
2018-08-20T00:31:41.883Z,1009.7
2018-08-20T00:32:22.203Z,1009.75
2018-08-20T00:33:02.657Z,1009.7
2018-08-20T00:33:43.069Z,1009.7
2018-08-20T00:34:23.524Z,1009.69
2018-08-20T00:35:03.947Z,1009.72
2018-08-20T00:35:44.254Z,1009.67
2018-08-20T00:36:24.650Z,1009.72
2018-08-20T00:37:05.005Z,1009.71
2018-08-20T00:37:45.606Z,1009.74
2018-08-20T00:38:25.941Z,1009.71
2018-08-20T00:39:06.449Z,1009.71
2018-08-20T00:39:46.936Z,1009.77
2018-08-20T00:40:27.369Z,1009.76
2018-08-20T00:41:07.757Z,1009.75
2018-08-20T00:41:48.204Z,1009.72
2018-08-20T00:42:28.640Z,1009.77
2018-08-20T00:43:09.178Z,1009.74
2018-08-20T00:43:49.482Z,1009.75
2018-08-20T00:44:30.044Z,1009.76
2018-08-20T00:45:10.289Z,1009.77
2018-08-20T00:45:50.705Z,1009.77
2018-08-20T00:46:31.277Z,1009.75
2018-08-20T00:47:11.572Z,1009.72
2018-08-20T00:47:51.990Z,1009.76
2018-08-20T00:48:32.462Z,1009.76
2018-08-20T00:49:12.966Z,1009.76
2018-08-20T00:49:53.322Z,1009.78
2018-08-20T00:50:33.631Z,1009.79
2018-08-20T00:51:14.118Z,1009.78
2018-08-20T00:51:54.559Z,1009.81
2018-08-20T00:52:34.949Z,1009.77
2018-08-20T00:53:15.489Z,1009.77
2018-08-20T00:53:55.825Z,1009.73
2018-08-20T00:54:36.179Z,1009.74
2018-08-20T00:55:16.623Z,1009.75
2018-08-20T00:55:57.204Z,1009.73
2018-08-20T00:56:37.425Z,1009.71
2018-08-20T00:57:17.973Z,1009.71
2018-08-20T00:57:58.290Z,1009.73
2018-08-20T00:58:38.738Z,1009.69
2018-08-20T00:59:19.203Z,1009.7
2018-08-20T00:59:59.679Z,1009.7
2018-08-20T01:00:40.042Z,1009.73
2018-08-20T01:01:20.487Z,1009.73
2018-08-20T01:02:00.793Z,1009.75
2018-08-20T01:02:41.278Z,1009.72
2018-08-20T01:03:21.699Z,1009.74
2018-08-20T01:04:01.980Z,1009.71
2018-08-20T01:04:42.412Z,1009.71
2018-08-20T01:06:55.496Z,1009.7
2018-08-20T01:07:35.579Z,1009.65
2018-08-20T01:08:16.091Z,1009.64
2018-08-20T01:08:56.548Z,1009.62
2018-08-20T01:09:36.923Z,1009.66
2018-08-20T01:10:17.438Z,1009.65
2018-08-20T01:10:57.786Z,1009.63
2018-08-20T01:11:38.231Z,1009.63
2018-08-20T01:12:18.652Z,1009.65
2018-08-20T01:12:59.243Z,1009.64
2018-08-20T01:13:39.462Z,1009.67
2018-08-20T01:14:19.861Z,1009.65
2018-08-20T01:15:00.322Z,1009.67
2018-08-20T01:15:40.893Z,1009.62
2018-08-20T01:16:21.176Z,1009.64
2018-08-20T01:17:01.683Z,1009.61
2018-08-20T01:17:42.007Z,1009.6
2018-08-20T01:18:22.567Z,1009.62
2018-08-20T01:19:02.817Z,1009.6
2018-08-20T01:19:43.288Z,1009.59
2018-08-20T01:20:23.636Z,1009.59
2018-08-20T01:21:04.055Z,1009.59
2018-08-20T01:21:44.436Z,1009.57
2018-08-20T01:22:25.016Z,1009.57
2018-08-20T01:23:05.345Z,1009.58
2018-08-20T01:23:45.816Z,1009.57
2018-08-20T01:24:26.301Z,1009.56
2018-08-20T01:25:06.619Z,1009.54
2018-08-20T01:25:47.083Z,1009.57
2018-08-20T01:26:27.491Z,1009.56
2018-08-20T01:27:07.837Z,1009.56
2018-08-20T01:27:48.232Z,1009.55
2018-08-20T01:28:28.757Z,1009.55
2018-08-20T01:29:09.235Z,1009.55
2018-08-20T01:29:49.621Z,1009.58
2018-08-20T01:30:29.927Z,1009.53
2018-08-20T01:31:10.351Z,1009.56
2018-08-20T01:31:50.810Z,1009.54
2018-08-20T01:32:31.234Z,1009.54
2018-08-20T01:33:11.822Z,1009.57
2018-08-20T01:33:52.121Z,1009.56
2018-08-20T01:34:32.670Z,1009.52
2018-08-20T01:35:12.923Z,1009.56
2018-08-20T01:35:53.315Z,1009.52
2018-08-20T01:36:33.877Z,1009.55
2018-08-20T01:37:14.211Z,1009.52
2018-08-20T01:37:54.717Z,1009.51
2018-08-20T01:38:35.001Z,1009.53
2018-08-20T01:39:15.458Z,1009.52
2018-08-20T01:39:55.935Z,1009.49
2018-08-20T01:40:36.344Z,1009.53
2018-08-20T01:41:16.750Z,1009.53
2018-08-20T01:41:57.070Z,1009.5
2018-08-20T01:42:37.550Z,1009.55
2018-08-20T01:43:17.981Z,1009.52
2018-08-20T01:43:58.369Z,1009.53
2018-08-20T01:44:38.753Z,1009.48
2018-08-20T01:45:19.249Z,1009.54
2018-08-20T01:45:59.508Z,1009.53
2018-08-20T01:46:39.948Z,1009.52
2018-08-20T01:47:20.417Z,1009.51
2018-08-20T01:48:00.925Z,1009.52
2018-08-20T01:48:41.309Z,1009.54
2018-08-20T01:49:21.583Z,1009.56
2018-08-20T01:50:02.117Z,1009.56
2018-08-20T01:50:42.485Z,1009.53
2018-08-20T01:51:22.845Z,1009.56
2018-08-20T01:52:03.471Z,1009.52
2018-08-20T01:52:43.758Z,1009.51
2018-08-20T01:53:24.282Z,1009.53
2018-08-20T01:54:04.709Z,1009.52
2018-08-20T01:54:45.022Z,1009.51
2018-08-20T01:55:25.469Z,1009.48
2018-08-20T01:56:05.900Z,1009.52
2018-08-20T01:56:46.259Z,1009.49
2018-08-20T01:57:26.702Z,1009.52
2018-08-20T01:58:07.101Z,1009.48
2018-08-20T01:58:47.528Z,1009.51
2018-08-20T01:59:27.996Z,1009.52
2018-08-20T02:00:08.434Z,1009.51
2018-08-20T02:00:48.685Z,1009.54
2018-08-20T02:01:29.114Z,1009.53
2018-08-20T02:02:09.673Z,1009.54
2018-08-20T02:02:50.163Z,1009.53
2018-08-20T02:03:30.332Z,1009.49
2018-08-20T02:04:10.790Z,1009.49
2018-08-20T02:04:51.365Z,1009.49
2018-08-20T02:05:31.679Z,1009.48
2018-08-20T02:06:12.135Z,1009.47
2018-08-20T02:06:52.565Z,1009.5
2018-08-20T02:07:33.068Z,1009.48
2018-08-20T02:08:13.463Z,1009.49
2018-08-20T02:08:53.862Z,1009.47
2018-08-20T02:09:34.210Z,1009.47
2018-08-20T02:10:14.720Z,1009.49
2018-08-20T02:10:55.086Z,1009.52
2018-08-20T02:11:35.498Z,1009.45
2018-08-20T02:12:15.916Z,1009.43
2018-08-20T02:12:56.374Z,1009.41
2018-08-20T02:13:36.803Z,1009.42
2018-08-20T02:14:17.264Z,1009.43
2018-08-20T02:14:57.705Z,1009.45
2018-08-20T02:15:38.118Z,1009.4
2018-08-20T02:16:18.521Z,1009.41
2018-08-20T02:16:58.934Z,1009.39
2018-08-20T02:17:39.358Z,1009.39
2018-08-20T02:18:19.933Z,1009.43
2018-08-20T02:19:00.244Z,1009.44
2018-08-20T02:19:40.655Z,1009.4
2018-08-20T02:20:21.128Z,1009.41
2018-08-20T02:21:01.614Z,1009.38
2018-08-20T02:21:41.845Z,1009.41
2018-08-20T02:22:22.453Z,1009.4
2018-08-20T02:23:02.813Z,1009.37
2018-08-20T02:23:43.181Z,1009.36
2018-08-20T02:24:23.569Z,1009.37
2018-08-20T02:25:03.968Z,1009.35
2018-08-20T02:25:44.511Z,1009.36
2018-08-20T02:26:24.800Z,1009.35
2018-08-20T02:27:05.205Z,1009.37
2018-08-20T02:27:45.702Z,1009.35
2018-08-20T02:28:26.061Z,1009.36
2018-08-20T02:29:06.552Z,1009.34
2018-08-20T02:29:47.027Z,1009.39
2018-08-20T02:30:27.440Z,1009.36
2018-08-20T02:31:07.696Z,1009.35
2018-08-20T02:31:48.083Z,1009.34
2018-08-20T02:32:28.674Z,1009.35
2018-08-20T02:33:08.970Z,1009.35
2018-08-20T02:33:49.385Z,1009.33
2018-08-20T02:34:29.866Z,1009.29
2018-08-20T02:35:10.196Z,1009.29
2018-08-20T02:35:50.551Z,1009.3
2018-08-20T02:36:30.999Z,1009.3
2018-08-20T02:37:11.589Z,1009.31
2018-08-20T02:37:52.297Z,1009.28
2018-08-20T02:38:33.097Z,1009.3
2018-08-20T02:39:13.336Z,1009.3
2018-08-20T02:39:53.788Z,1009.29
2018-08-20T02:40:34.200Z,1009.25
2018-08-20T02:41:14.607Z,1009.25
2018-08-20T02:41:55.199Z,1009.25
2018-08-20T02:42:35.575Z,1009.21
2018-08-20T02:43:16.146Z,1009.24
2018-08-20T02:43:56.572Z,1009.22
2018-08-20T02:44:36.988Z,1009.28
2018-08-20T02:45:17.380Z,1009.24
2018-08-20T02:45:58.235Z,1009.23
2018-08-20T02:46:38.904Z,1009.2
2018-08-20T02:47:19.356Z,1009.18
2018-08-20T02:48:00.020Z,1009.22
2018-08-20T02:48:40.462Z,1009.2
2018-08-20T02:49:20.831Z,1009.19
2018-08-20T02:50:01.427Z,1009.19
2018-08-20T02:50:41.822Z,1009.14
2018-08-20T02:51:22.144Z,1009.2
2018-08-20T02:52:02.779Z,1009.16
2018-08-20T02:52:43.157Z,1009.22
2018-08-20T02:53:23.899Z,1009.18
2018-08-20T02:54:04.248Z,1009.2
2018-08-20T02:54:44.744Z,1009.15
2018-08-20T02:55:25.112Z,1009.14
2018-08-20T02:56:05.539Z,1009.21
2018-08-20T02:56:46.021Z,1009.2
2018-08-20T02:57:26.465Z,1009.17
2018-08-20T02:58:06.800Z,1009.19
2018-08-20T02:58:47.293Z,1009.16
2018-08-20T02:59:27.676Z,1009.16
2018-08-20T03:00:08.187Z,1009.19
2018-08-20T03:00:48.552Z,1009.19
2018-08-20T03:01:28.942Z,1009.23
2018-08-20T03:02:09.488Z,1009.21
2018-08-20T03:02:49.807Z,1009.19
2018-08-20T03:03:30.272Z,1009.21
2018-08-20T03:04:11.614Z,1009.17
2018-08-20T03:04:52.717Z,1009.18
2018-08-20T03:05:33.298Z,1009.2
2018-08-20T03:06:13.811Z,1009.22
2018-08-20T03:06:54.183Z,1009.22
2018-08-20T03:07:34.554Z,1009.25
2018-08-20T03:08:14.976Z,1009.25
2018-08-20T03:08:55.436Z,1009.22
2018-08-20T03:09:35.855Z,1009.25
2018-08-20T03:10:16.296Z,1009.26
2018-08-20T03:10:56.680Z,1009.26
2018-08-20T03:11:37.148Z,1009.25
2018-08-20T03:12:17.544Z,1009.22
2018-08-20T03:12:58.085Z,1009.18
2018-08-20T03:13:41.229Z,1009.28
2018-08-20T03:14:21.903Z,1009.23
2018-08-20T03:15:02.284Z,1009.24
2018-08-20T03:15:42.719Z,1009.22
2018-08-20T03:16:23.375Z,1009.18
2018-08-20T03:17:04.370Z,1009.26
2018-08-20T03:17:45.890Z,1009.22
2018-08-20T03:18:28.843Z,1009.19
2018-08-20T03:19:09.290Z,1009.21
2018-08-20T03:19:50.589Z,1009.2
2018-08-20T03:20:32.079Z,1009.27
2018-08-20T03:21:13.679Z,1009.19
2018-08-20T03:21:54.091Z,1009.21
2018-08-20T03:22:34.517Z,1009.2
2018-08-20T03:23:15.710Z,1009.2
2018-08-20T03:23:56.008Z,1009.18
2018-08-20T03:24:38.264Z,1009.21
2018-08-20T03:25:19.402Z,1009.22
2018-08-20T03:25:59.772Z,1009.23
2018-08-20T03:26:40.365Z,1009.21
2018-08-20T03:27:20.836Z,1009.17
2018-08-20T03:28:01.093Z,1009.17
2018-08-20T03:28:41.562Z,1009.21
2018-08-20T03:29:21.944Z,1009.15
2018-08-20T03:30:02.894Z,1009.15
2018-08-20T03:30:43.695Z,1009.17
2018-08-20T03:31:24.057Z,1009.18
2018-08-20T03:32:04.774Z,1009.13
2018-08-20T03:32:45.052Z,1009.17
2018-08-20T03:33:25.450Z,1009.12
2018-08-20T03:34:05.941Z,1009.19
2018-08-20T03:34:46.598Z,1009.18
2018-08-20T03:35:27.020Z,1009.23
2018-08-20T03:36:07.629Z,1009.24
2018-08-20T03:36:48.086Z,1009.22
2018-08-20T03:37:28.715Z,1009.23
2018-08-20T03:38:09.153Z,1009.24
2018-08-20T03:38:49.637Z,1009.27
2018-08-20T03:39:30.079Z,1009.25
2018-08-20T03:40:10.433Z,1009.22
2018-08-20T03:40:51.023Z,1009.21
2018-08-20T03:41:31.361Z,1009.23
2018-08-20T03:42:11.681Z,1009.24
2018-08-20T03:42:52.758Z,1009.21
2018-08-20T03:43:33.106Z,1009.25
2018-08-20T03:44:13.434Z,1009.23
2018-08-20T03:44:53.866Z,1009.24
2018-08-20T03:45:34.291Z,1009.29
2018-08-20T03:46:14.710Z,1009.27
2018-08-20T03:46:55.111Z,1009.26
2018-08-20T03:47:36.263Z,1009.31
2018-08-20T03:48:16.217Z,1009.26
2018-08-20T03:48:56.667Z,1009.31
2018-08-20T03:49:37.472Z,1009.25
2018-08-20T03:50:17.904Z,1009.32
2018-08-20T03:50:58.290Z,1009.33
2018-08-20T03:51:38.646Z,1009.33
2018-08-20T03:52:19.098Z,1009.37
2018-08-20T03:52:59.476Z,1009.4
2018-08-20T03:53:39.842Z,1009.41
2018-08-20T03:54:20.430Z,1009.44
2018-08-20T03:55:00.682Z,1009.43
2018-08-20T03:55:41.083Z,1009.48
2018-08-20T03:56:21.548Z,1009.47
2018-08-20T03:57:01.917Z,1009.52
2018-08-20T03:57:42.556Z,1009.49
2018-08-20T03:58:22.708Z,1009.52
2018-08-20T03:59:03.206Z,1009.56
2018-08-20T03:59:43.572Z,1009.54
2018-08-20T04:00:23.952Z,1009.52
2018-08-20T04:01:04.439Z,1009.51
2018-08-20T04:01:44.742Z,1009.55
2018-08-20T04:02:25.164Z,1009.54
2018-08-20T04:03:05.595Z,1009.57
2018-08-20T04:03:45.961Z,1009.54
2018-08-20T04:04:26.417Z,1009.61
2018-08-20T04:05:06.920Z,1009.6
2018-08-20T04:05:47.236Z,1009.6
2018-08-20T04:06:27.661Z,1009.62
2018-08-20T04:07:08.078Z,1009.64
2018-08-20T04:07:49.086Z,1009.62
2018-08-20T04:08:28.925Z,1009.63
2018-08-20T04:09:09.444Z,1009.63
2018-08-20T04:09:49.890Z,1009.67
2018-08-20T04:10:30.223Z,1009.65
2018-08-20T04:11:10.668Z,1009.65
2018-08-20T04:11:51.041Z,1009.65
2018-08-20T04:12:32.189Z,1009.65
2018-08-20T04:13:12.622Z,1009.64
2018-08-20T04:13:53.042Z,1009.64
2018-08-20T04:14:33.544Z,1009.64
2018-08-20T04:15:13.884Z,1009.63
2018-08-20T04:15:54.300Z,1009.64
2018-08-20T04:16:34.749Z,1009.66
2018-08-20T04:17:15.123Z,1009.7
2018-08-20T04:17:55.438Z,1009.65
2018-08-20T04:18:35.886Z,1009.69
2018-08-20T04:19:16.230Z,1009.66
2018-08-20T04:19:56.772Z,1009.69
2018-08-20T04:20:37.124Z,1009.68
2018-08-20T04:21:17.516Z,1009.68
2018-08-20T04:21:57.875Z,1009.66
2018-08-20T04:22:38.294Z,1009.65
2018-08-20T04:23:19.701Z,1009.65
2018-08-20T04:23:59.209Z,1009.63
2018-08-20T04:24:39.645Z,1009.62
2018-08-20T04:25:20.083Z,1009.56
2018-08-20T04:26:00.460Z,1009.59
2018-08-20T04:26:40.857Z,1009.61
2018-08-20T04:27:21.281Z,1009.57
2018-08-20T04:28:01.685Z,1009.56
2018-08-20T05:06:23.625Z,1009.57
2018-08-20T05:07:04.021Z,1009.56
2018-08-20T05:07:44.369Z,1009.59
2018-08-20T05:08:24.820Z,1009.63
2018-08-20T05:09:05.155Z,1009.57
2018-08-20T05:09:45.635Z,1009.61
2018-08-20T05:10:25.995Z,1009.57
2018-08-20T05:11:06.449Z,1009.62
2018-08-20T05:11:46.862Z,1009.62
2018-08-20T05:12:27.292Z,1009.64
2018-08-20T05:13:07.644Z,1009.63
2018-08-20T05:13:48.005Z,1009.65
2018-08-20T05:14:28.403Z,1009.68
2018-08-20T05:15:08.807Z,1009.67
2018-08-20T05:15:49.209Z,1009.68
2018-08-20T05:16:29.636Z,1009.66
2018-08-20T05:17:10.047Z,1009.64
2018-08-20T05:17:50.452Z,1009.66
2018-08-20T05:18:30.847Z,1009.7
2018-08-20T05:19:11.265Z,1009.69
2018-08-20T05:19:51.698Z,1009.63
2018-08-20T05:20:32.085Z,1009.66
2018-08-20T05:21:12.466Z,1009.61
2018-08-20T05:21:52.881Z,1009.66
2018-08-20T05:22:33.287Z,1009.67
2018-08-20T05:24:50.933Z,1009.71
2018-08-20T05:25:31.322Z,1009.73
2018-08-20T05:26:11.676Z,1009.75
2018-08-20T05:26:52.083Z,1009.74
2018-08-20T05:27:32.496Z,1009.76
2018-08-20T05:28:12.979Z,1009.78
2018-08-20T05:28:53.393Z,1009.75
2018-08-20T05:29:33.865Z,1009.76
2018-08-20T05:30:14.267Z,1009.78
2018-08-20T05:30:54.658Z,1009.73
2018-08-20T05:31:35.078Z,1009.73
2018-08-20T05:32:15.489Z,1009.76
2018-08-20T05:32:55.952Z,1009.74
2018-08-20T05:33:36.296Z,1009.73
2018-08-20T05:34:16.758Z,1009.72
2018-08-20T05:34:57.131Z,1009.74
2018-08-20T05:35:37.566Z,1009.73
2018-08-20T05:36:18.015Z,1009.74
2018-08-20T05:36:58.387Z,1009.7
2018-08-20T05:37:38.812Z,1009.74
2018-08-20T05:38:19.164Z,1009.72
2018-08-20T05:38:59.601Z,1009.73
2018-08-20T05:39:40.049Z,1009.72
2018-08-20T05:40:20.475Z,1009.72
2018-08-20T05:41:00.875Z,1009.74
2018-08-20T05:41:41.277Z,1009.75
2018-08-20T05:42:21.697Z,1009.75
2018-08-20T05:43:02.119Z,1009.72
2018-08-20T05:43:42.948Z,1009.74
2018-08-20T05:44:23.330Z,1009.79
2018-08-20T05:45:03.725Z,1009.76
2018-08-20T05:45:44.178Z,1009.8
2018-08-20T05:46:25.539Z,1009.81
2018-08-20T05:47:06.680Z,1009.83
2018-08-20T05:47:47.657Z,1009.83
2018-08-20T05:48:28.831Z,1009.82
2018-08-20T05:49:08.410Z,1009.86
2018-08-20T05:49:48.911Z,1009.85
2018-08-20T05:50:29.338Z,1009.84
2018-08-20T05:51:09.686Z,1009.86
2018-08-20T05:51:50.203Z,1009.86
2018-08-20T05:52:30.622Z,1009.85
2018-08-20T05:53:11.414Z,1009.85
2018-08-20T05:53:51.507Z,1009.85
2018-08-20T05:54:31.939Z,1009.83
2018-08-20T05:55:12.301Z,1009.87
2018-08-20T05:55:52.709Z,1009.88
2018-08-20T05:56:33.180Z,1009.89
2018-08-20T05:57:13.598Z,1009.92
2018-08-20T05:57:55.123Z,1009.89
2018-08-20T05:58:35.445Z,1009.91
2018-08-20T05:59:15.972Z,1009.91
2018-08-20T05:59:56.250Z,1009.91
2018-08-20T06:00:36.671Z,1009.9
2018-08-20T06:01:17.041Z,1009.88
2018-08-20T06:01:57.452Z,1009.89
2018-08-20T06:02:37.828Z,1009.9
2018-08-20T06:03:18.229Z,1009.91
2018-08-20T06:03:58.617Z,1009.86
2018-08-20T06:04:39.036Z,1009.86
2018-08-20T06:05:19.420Z,1009.9
2018-08-20T06:05:59.812Z,1009.87
2018-08-20T06:06:40.245Z,1009.88
2018-08-20T06:07:20.747Z,1009.9
2018-08-20T06:08:01.603Z,1009.89
2018-08-20T06:08:42.052Z,1009.92
2018-08-20T06:09:23.654Z,1009.95
2018-08-20T06:10:03.639Z,1009.94
2018-08-20T06:10:44.188Z,1009.96
2018-08-20T06:11:24.905Z,1009.95
2018-08-20T06:12:06.548Z,1009.96
2018-08-20T06:12:46.781Z,1009.97
2018-08-20T06:13:27.251Z,1009.97
2018-08-20T06:14:08.120Z,1010.03
2018-08-20T06:14:49.543Z,1010.03
2018-08-20T06:15:29.356Z,1010.03
2018-08-20T06:16:09.853Z,1010.04
2018-08-20T06:16:50.986Z,1010.05
2018-08-20T06:17:31.302Z,1010.02
2018-08-20T06:18:11.841Z,1009.99
2018-08-20T06:18:53.555Z,1010.04
2018-08-20T06:19:33.376Z,1010.02
2018-08-20T06:20:14.311Z,1010.02
2018-08-20T06:20:54.936Z,1010.06
2018-08-20T06:21:36.186Z,1010.03
2018-08-20T06:22:17.776Z,1010.02
2018-08-20T06:22:58.071Z,1010.05
2018-08-20T06:23:39.217Z,1010.07
2018-08-20T06:24:19.010Z,1010.08
2018-08-20T06:25:00.579Z,1010.11
2018-08-20T06:25:41.057Z,1010.09
2018-08-20T06:26:21.207Z,1010.14
2018-08-20T06:27:02.059Z,1010.11
2018-08-20T06:27:42.690Z,1010.11
2018-08-20T06:28:23.209Z,1010.13
2018-08-20T06:29:03.993Z,1010.13
2018-08-20T06:29:45.368Z,1010.14
2018-08-20T06:30:26.128Z,1010.18
2018-08-20T06:31:06.505Z,1010.15
2018-08-20T06:31:46.638Z,1010.17
2018-08-20T06:32:28.057Z,1010.14
2018-08-20T06:33:09.068Z,1010.16
2018-08-20T06:33:48.872Z,1010.18
2018-08-20T06:34:29.843Z,1010.16
2018-08-20T06:35:10.566Z,1010.19
2018-08-20T06:35:51.142Z,1010.19
2018-08-20T06:36:31.847Z,1010.21
2018-08-20T06:37:12.642Z,1010.22
2018-08-20T06:37:53.514Z,1010.2
2018-08-20T06:38:34.215Z,1010.26
2018-08-20T06:39:15.078Z,1010.21
2018-08-20T06:39:55.842Z,1010.25
2018-08-20T06:40:37.225Z,1010.25
2018-08-20T06:41:17.102Z,1010.23
2018-08-20T06:41:58.562Z,1010.24
2018-08-20T06:42:38.983Z,1010.24
2018-08-20T06:43:19.282Z,1010.21
2018-08-20T06:45:12.270Z,1010.27
2018-08-20T06:45:54.153Z,1010.28
2018-08-20T06:46:33.963Z,1010.3
2018-08-20T06:47:15.368Z,1010.22
2018-08-20T06:47:55.634Z,1010.24
2018-08-20T06:48:36.303Z,1010.21
2018-08-20T06:49:18.313Z,1010.23
2018-08-20T06:49:59.463Z,1010.21
2018-08-20T06:50:39.633Z,1010.22
2018-08-20T06:51:20.294Z,1010.26
2018-08-20T06:52:01.810Z,1010.27
2018-08-20T06:52:42.205Z,1010.26
2018-08-20T06:53:23.160Z,1010.29
2018-08-20T06:54:04.117Z,1010.27
2018-08-20T06:54:45.326Z,1010.31
2018-08-20T06:55:26.427Z,1010.27
2018-08-20T06:56:06.805Z,1010.28
2018-08-20T06:56:47.802Z,1010.31
2018-08-20T06:57:28.305Z,1010.3
2018-08-20T06:58:09.312Z,1010.33
2018-08-20T06:58:49.775Z,1010.32
2018-08-20T06:59:30.227Z,1010.36
2018-08-20T07:00:11.812Z,1010.34
2018-08-20T07:00:52.824Z,1010.36
2018-08-20T07:01:33.153Z,1010.39
2018-08-20T07:02:13.835Z,1010.4
2018-08-20T07:02:55.312Z,1010.42
2018-08-20T07:03:35.804Z,1010.4
2018-08-20T07:04:16.337Z,1010.45
2018-08-20T07:04:58.294Z,1010.45
2018-08-20T07:05:38.496Z,1010.46
2018-08-20T07:06:20.610Z,1010.45
2018-08-20T07:06:59.971Z,1010.47
2018-08-20T07:07:40.490Z,1010.46
2018-08-20T07:08:21.452Z,1010.47
2018-08-20T07:09:02.816Z,1010.46
2018-08-20T07:09:42.598Z,1010.45
2018-08-20T07:10:23.330Z,1010.47
2018-08-20T07:11:04.310Z,1010.43
2018-08-20T07:11:45.474Z,1010.45
2018-08-20T07:12:26.310Z,1010.44
2018-08-20T07:13:06.988Z,1010.46
2018-08-20T07:13:48.019Z,1010.45
2018-08-20T07:14:29.333Z,1010.41
2018-08-20T07:15:09.375Z,1010.41
2018-08-20T07:15:50.266Z,1010.43
2018-08-20T07:16:30.696Z,1010.48
2018-08-20T07:17:12.330Z,1010.5
2018-08-20T07:17:52.190Z,1010.47
2018-08-20T07:18:33.831Z,1010.51
2018-08-20T07:19:13.855Z,1010.55
2018-08-20T07:19:54.970Z,1010.53
2018-08-20T07:20:35.860Z,1010.51
2018-08-20T07:22:50.889Z,1010.57
2018-08-20T07:23:47.445Z,1010.54
2018-08-20T07:24:42.494Z,1010.61
2018-08-20T07:25:39.325Z,1010.59
2018-08-20T07:26:36.739Z,1010.62
2018-08-20T07:27:16.882Z,1010.6
2018-08-20T07:28:13.369Z,1010.58
2018-08-20T07:28:54.377Z,1010.57
2018-08-20T07:29:34.843Z,1010.6
2018-08-20T07:30:16.772Z,1010.62
2018-08-20T07:30:56.532Z,1010.57
2018-08-20T07:31:37.634Z,1010.65
2018-08-20T07:32:18.892Z,1010.57
2018-08-20T07:33:00.000Z,1010.64
2018-08-20T07:33:40.938Z,1010.57
2018-08-20T07:34:21.893Z,1010.58
2018-08-20T07:35:03.662Z,1010.54
2018-08-20T07:35:43.291Z,1010.59
2018-08-20T07:36:24.176Z,1010.56
2018-08-20T07:37:04.866Z,1010.58
2018-08-20T07:37:45.467Z,1010.62
2018-08-20T07:38:26.322Z,1010.6
2018-08-20T07:39:06.949Z,1010.61
2018-08-20T07:39:47.576Z,1010.6
2018-08-20T07:40:28.628Z,1010.63
2018-08-20T07:41:09.915Z,1010.58
2018-08-20T07:41:50.281Z,1010.59
2018-08-20T07:42:31.179Z,1010.63
2018-08-20T07:43:11.711Z,1010.64
2018-08-20T07:43:52.432Z,1010.64
2018-08-20T07:44:33.066Z,1010.61
2018-08-20T07:45:14.311Z,1010.7
2018-08-20T07:45:55.191Z,1010.64
2018-08-20T07:46:36.480Z,1010.66
2018-08-20T07:47:17.260Z,1010.68
2018-08-20T07:47:58.065Z,1010.69
2018-08-20T07:48:39.419Z,1010.66
2018-08-20T07:49:19.883Z,1010.71
2018-08-20T07:50:00.453Z,1010.7
2018-08-20T07:50:41.889Z,1010.65
2018-08-20T07:51:22.005Z,1010.65
2018-08-20T07:52:10.504Z,1010.65
2018-08-20T07:52:51.692Z,1010.69
2018-08-20T07:53:39.109Z,1010.66
2018-08-20T07:54:34.720Z,1010.66
2018-08-20T07:55:31.136Z,1010.65
2018-08-20T07:58:07.080Z,1010.59
2018-08-20T07:58:59.487Z,1010.59
2018-08-20T07:59:40.024Z,1010.55
2018-08-20T08:00:21.456Z,1010.59
2018-08-20T08:01:08.818Z,1010.59
2018-08-20T08:01:49.928Z,1010.6
2018-08-20T08:02:30.588Z,1010.62
2018-08-20T08:03:11.880Z,1010.63
2018-08-20T08:03:52.408Z,1010.61
2018-08-20T08:04:34.020Z,1010.65
2018-08-20T08:05:15.805Z,1010.68
2018-08-20T08:05:56.352Z,1010.68
2018-08-20T08:06:37.213Z,1010.68
2018-08-20T08:17:23.788Z,1010.8
2018-08-20T08:20:26.682Z,1010.78
2018-08-20T08:21:07.134Z,1010.84
2018-08-20T08:21:47.644Z,1010.8
2018-08-20T08:22:28.020Z,1010.8
2018-08-20T08:23:08.612Z,1010.76
2018-08-20T08:23:49.936Z,1010.78
2018-08-20T08:24:31.193Z,1010.85
2018-08-20T08:25:11.565Z,1010.77
2018-08-20T08:25:51.971Z,1010.78
2018-08-20T08:26:32.458Z,1010.8
2018-08-20T08:27:13.035Z,1010.78
2018-08-20T08:27:53.412Z,1010.8
2018-08-20T08:28:33.806Z,1010.8
2018-08-20T08:29:14.350Z,1010.78
2018-08-20T08:29:54.733Z,1010.79
2018-08-20T08:30:35.152Z,1010.82
2018-08-20T08:31:15.554Z,1010.8
2018-08-20T08:31:56.099Z,1010.79
2018-08-20T08:32:36.617Z,1010.76
2018-08-20T08:33:17.022Z,1010.81
2018-08-20T08:33:57.523Z,1010.84
2018-08-20T08:34:37.908Z,1010.81
2018-08-20T08:35:18.345Z,1010.75
2018-08-20T08:35:59.222Z,1010.78
2018-08-20T08:36:39.940Z,1010.79
2018-08-20T08:37:20.445Z,1010.8
2018-08-20T08:38:00.869Z,1010.82
2018-08-20T08:38:41.322Z,1010.8
2018-08-20T08:39:21.812Z,1010.84
2018-08-20T08:40:02.231Z,1010.8
2018-08-20T08:40:42.756Z,1010.82
2018-08-20T08:41:23.198Z,1010.81
2018-08-20T08:42:03.686Z,1010.87
2018-08-20T08:42:44.055Z,1010.83
2018-08-20T08:43:24.605Z,1010.87
2018-08-20T08:44:05.293Z,1010.84
2018-08-20T08:44:45.557Z,1010.83
2018-08-20T08:45:26.021Z,1010.86
2018-08-20T08:46:06.523Z,1010.84
2018-08-20T08:46:47.021Z,1010.85
2018-08-20T08:47:27.471Z,1010.85
2018-08-20T08:48:07.959Z,1010.84
2018-08-20T08:48:48.715Z,1010.86
2018-08-20T08:49:29.036Z,1010.83
2018-08-20T08:50:09.495Z,1010.84
2018-08-20T08:50:49.948Z,1010.87
2018-08-20T08:51:30.495Z,1010.84
2018-08-20T08:52:10.940Z,1010.85
2018-08-20T08:52:51.600Z,1010.83
2018-08-20T08:53:32.223Z,1010.84
2018-08-20T08:54:12.838Z,1010.84
2018-08-20T08:54:53.214Z,1010.86
2018-08-20T08:55:34.109Z,1010.85
2018-08-20T08:56:14.622Z,1010.83
2018-08-20T08:56:55.171Z,1010.87
2018-08-20T08:57:35.836Z,1010.85
2018-08-20T08:58:16.244Z,1010.87
2018-08-20T08:58:56.700Z,1010.86
2018-08-20T08:59:37.169Z,1010.89
2018-08-20T09:00:17.728Z,1010.86
2018-08-20T09:00:58.196Z,1010.89
2018-08-20T09:01:38.643Z,1010.9
2018-08-20T09:02:19.209Z,1010.91
2018-08-20T09:02:59.842Z,1010.88
2018-08-20T09:03:40.494Z,1010.88
2018-08-20T09:04:20.863Z,1010.91
2018-08-20T09:05:01.436Z,1010.92
2018-08-20T09:05:42.057Z,1010.91
2018-08-20T09:06:22.812Z,1011
2018-08-20T09:07:03.505Z,1010.91
2018-08-20T09:07:45.009Z,1010.95
2018-08-20T09:08:24.773Z,1010.95
2018-08-20T09:09:05.217Z,1010.96
2018-08-20T09:09:45.762Z,1010.97
2018-08-20T09:10:27.528Z,1010.97
2018-08-20T09:11:08.139Z,1011
2018-08-20T09:11:49.809Z,1010.99
2018-08-20T09:12:30.350Z,1011